createdAt,value
2022-11-25T00:00:24.076Z,1.23
2022-11-25T00:03:10.299Z,1.10
2022-11-25T00:05:56.887Z,1.17
2022-11-25T00:08:44.225Z,1.43
2022-11-25T00:11:30.827Z,1.53
2022-11-25T00:14:18.402Z,1.30
2022-11-25T00:17:05.047Z,1.23
2022-11-25T00:19:51.586Z,1.00
2022-11-25T00:22:37.895Z,1.50
2022-11-25T00:25:24.351Z,1.20
2022-11-25T00:28:10.704Z,1.40
2022-11-25T00:31:04.749Z,1.03
2022-11-25T00:33:51.674Z,1.20
2022-11-25T00:36:38.866Z,1.53
2022-11-25T00:39:27.121Z,1.20
2022-11-25T00:42:30.889Z,1.40
2022-11-25T00:45:16.882Z,1.37
2022-11-25T00:48:04.585Z,1.27
2022-11-25T00:50:51.168Z,1.00
2022-11-25T00:53:37.495Z,1.23
2022-11-25T00:56:23.992Z,1.43
2022-11-25T00:59:10.431Z,1.63
2022-11-25T01:01:57.066Z,1.67
2022-11-25T01:04:45.183Z,1.10
2022-11-25T01:07:31.505Z,1.10
2022-11-25T01:10:17.873Z,1.00
2022-11-25T01:13:04.122Z,1.77
2022-11-25T01:15:50.653Z,1.20
2022-11-25T01:18:37.227Z,1.30
2022-11-25T01:21:26.574Z,1.20
2022-11-25T01:24:13.573Z,1.70
2022-11-25T01:26:59.965Z,1.20
2022-11-25T01:29:46.156Z,1.37
2022-11-25T01:32:32.462Z,1.60
2022-11-25T01:35:18.590Z,1.60
2022-11-25T01:38:06.516Z,1.70
2022-11-25T01:40:53.072Z,1.57
2022-11-25T01:43:39.260Z,1.53
2022-11-25T01:46:26.515Z,1.53
2022-11-25T01:49:15.384Z,1.50
2022-11-25T01:52:04.228Z,1.57
2022-11-25T01:54:54.629Z,1.30
2022-11-25T01:57:43.246Z,2.03
2022-11-25T02:00:29.760Z,1.40
2022-11-25T02:03:15.993Z,1.27
2022-11-25T02:06:05.898Z,1.47
2022-11-25T02:08:54.987Z,1.67
2022-11-25T02:11:44.001Z,1.27
2022-11-25T02:14:30.295Z,1.63
2022-11-25T02:17:16.608Z,1.10
2022-11-25T02:20:05.230Z,1.50
2022-11-25T02:22:54.431Z,1.23
2022-11-25T02:25:42.663Z,1.00
2022-11-25T02:28:30.700Z,1.60
2022-11-25T02:31:20.185Z,1.50
2022-11-25T02:34:06.876Z,0.60
2022-11-25T02:36:54.009Z,1.40
2022-11-25T02:39:40.415Z,1.73
2022-11-25T02:42:29.672Z,1.43
2022-11-25T02:45:18.558Z,1.00
2022-11-25T02:48:05.319Z,1.30
2022-11-25T02:50:51.689Z,1.40
2022-11-25T02:53:38.270Z,1.37
2022-11-25T02:56:26.563Z,1.40
2022-11-25T02:59:14.511Z,1.10
2022-11-25T03:02:01.136Z,1.37
2022-11-25T03:04:47.435Z,1.23
2022-11-25T03:07:33.682Z,1.40
2022-11-25T03:10:20.254Z,1.30
2022-11-25T03:13:06.801Z,1.40
2022-11-25T03:15:54.401Z,1.30
2022-11-25T03:18:40.848Z,1.30
2022-11-25T03:21:27.218Z,1.33
2022-11-25T03:24:13.699Z,1.00
2022-11-25T03:26:59.795Z,1.57
2022-11-25T03:29:46.359Z,1.63
2022-11-25T03:32:33.980Z,1.87
2022-11-25T03:35:20.421Z,1.30
2022-11-25T03:38:06.568Z,1.30
2022-11-25T03:40:52.864Z,1.17
2022-11-25T03:43:39.238Z,1.13
2022-11-25T03:46:25.848Z,1.10
2022-11-25T03:49:13.810Z,1.63
2022-11-25T03:52:00.175Z,1.20
2022-11-25T03:54:46.565Z,1.40
2022-11-25T03:57:32.934Z,1.20
2022-11-25T04:00:19.462Z,1.73
2022-11-25T04:03:05.984Z,1.90
2022-11-25T04:05:53.466Z,1.70
2022-11-25T04:08:39.905Z,1.60
2022-11-25T04:11:46.581Z,1.30
2022-11-25T04:14:31.891Z,1.73
2022-11-25T04:17:18.460Z,1.70
2022-11-25T04:20:04.936Z,1.50
2022-11-25T04:22:52.773Z,1.50
2022-11-25T04:25:39.414Z,1.40
2022-11-25T04:28:25.771Z,1.50
2022-11-25T04:31:12.077Z,1.80
2022-11-25T04:33:58.196Z,1.43
2022-11-25T04:36:44.625Z,6.10
2022-11-25T04:39:32.415Z,1.77
2022-11-25T04:42:32.636Z,1.20
2022-11-25T04:45:23.647Z,10.20
2022-11-25T04:48:10.797Z,1.80
2022-11-25T04:50:57.009Z,1.30
2022-11-25T04:53:44.109Z,1.40
2022-11-25T04:56:32.222Z,1.97
2022-11-25T04:59:36.135Z,1.50
2022-11-25T05:02:23.366Z,1.23
2022-11-25T05:05:10.227Z,1.67
2022-11-25T05:07:57.260Z,1.50
2022-11-25T05:10:43.466Z,1.23
2022-11-25T05:13:31.301Z,1.33
2022-11-25T05:16:17.369Z,1.57
2022-11-25T05:19:03.823Z,1.63
2022-11-25T05:21:49.984Z,1.70
2022-11-25T05:24:36.458Z,1.47
2022-11-25T05:27:23.567Z,1.80
2022-11-25T05:30:11.870Z,7.13
2022-11-25T05:32:58.283Z,2.20
2022-11-25T05:35:44.632Z,1.90
2022-11-25T05:38:31.005Z,2.03
2022-11-25T05:41:17.437Z,2.07
2022-11-25T05:44:05.220Z,1.50
2022-11-25T05:46:55.921Z,1.80
2022-11-25T05:49:42.430Z,1.87
2022-11-25T05:52:29.019Z,2.93
2022-11-25T05:55:15.534Z,2.93
2022-11-25T05:58:03.009Z,1.63
2022-11-25T06:00:49.635Z,1.47
2022-11-25T06:03:38.541Z,1.80
2022-11-25T06:06:24.767Z,2.07
2022-11-25T06:09:11.341Z,1.70
2022-11-25T06:11:57.617Z,1.40
2022-11-25T06:14:43.824Z,2.80
2022-11-25T06:17:30.091Z,2.50
2022-11-25T06:20:17.733Z,2.47
2022-11-25T06:23:04.056Z,1.70
2022-11-25T06:25:50.328Z,2.10
2022-11-25T06:28:36.730Z,1.60
2022-11-25T06:31:24.277Z,1.97
2022-11-25T06:34:11.246Z,2.20
2022-11-25T06:36:58.799Z,3.10
2022-11-25T06:39:45.010Z,1.50
2022-11-25T06:42:31.996Z,2.27
2022-11-25T06:45:18.699Z,1.73
2022-11-25T06:48:05.393Z,1.40
2022-11-25T06:50:58.741Z,1.40
2022-11-25T06:53:46.402Z,1.33
2022-11-25T06:56:32.946Z,1.40
2022-11-25T06:59:19.743Z,1.53
2022-11-25T07:02:06.267Z,1.40
2022-11-25T07:04:52.434Z,1.80
2022-11-25T07:07:38.938Z,1.33
2022-11-25T07:10:26.756Z,1.27
2022-11-25T07:13:13.306Z,1.87
2022-11-25T07:16:01.721Z,1.47
2022-11-25T07:18:47.971Z,1.87
2022-11-25T07:21:35.198Z,1.80
2022-11-25T07:24:21.949Z,2.10
2022-11-25T07:27:09.689Z,1.50
2022-11-25T07:30:29.114Z,1.40
2022-11-25T07:33:02.828Z,1.80
2022-11-25T07:35:49.308Z,2.13
2022-11-25T07:38:36.262Z,2.23
2022-11-25T07:41:23.776Z,1.70
2022-11-25T07:44:12.823Z,2.00
2022-11-25T07:46:59.220Z,1.53
2022-11-25T07:52:32.544Z,1.50
2022-11-25T07:55:18.988Z,2.03
2022-11-25T07:58:05.095Z,1.50
2022-11-25T08:00:52.996Z,2.13
2022-11-25T08:03:40.207Z,1.90
2022-11-25T08:06:27.910Z,1.83
2022-11-25T08:09:15.517Z,1.70
2022-11-25T08:12:02.199Z,2.00
2022-11-25T08:14:48.487Z,2.30
2022-11-25T08:17:36.307Z,2.27
2022-11-25T08:20:22.957Z,2.07
2022-11-25T08:23:09.387Z,1.37
2022-11-25T08:25:55.549Z,2.33
2022-11-25T08:28:42.459Z,2.90
2022-11-25T08:31:29.619Z,3.03
2022-11-25T08:34:19.996Z,2.13
2022-11-25T08:37:06.560Z,1.73
2022-11-25T08:39:53.705Z,1.67
2022-11-25T08:42:40.614Z,2.30
2022-11-25T08:48:14.061Z,2.93
2022-11-25T09:05:02.841Z,2.50
2022-11-25T09:07:50.757Z,2.00
2022-11-25T09:10:37.413Z,1.97
2022-11-25T09:13:23.542Z,2.80
2022-11-25T09:16:10.886Z,2.17
2022-11-25T09:19:00.031Z,1.43
2022-11-25T09:21:46.780Z,2.03
2022-11-25T09:24:35.455Z,2.40
2022-11-25T09:27:21.691Z,1.90
2022-11-25T09:30:08.731Z,2.77
2022-11-25T09:32:55.660Z,2.87
2022-11-25T09:35:42.464Z,2.23
2022-11-25T09:38:29.105Z,1.80
2022-11-25T09:41:44.627Z,2.53
2022-11-25T09:44:54.824Z,2.23
2022-11-25T09:47:48.202Z,2.50
2022-11-25T09:50:41.767Z,2.87
2022-11-25T09:53:35.137Z,2.50
2022-11-25T09:56:26.964Z,1.93
2022-11-25T09:59:16.241Z,2.07
2022-11-25T10:02:04.790Z,2.67
2022-11-25T10:04:54.711Z,3.57
2022-11-25T10:07:42.743Z,2.57
2022-11-25T10:10:30.887Z,1.80
2022-11-25T10:13:21.421Z,2.63
2022-11-25T10:16:11.201Z,2.77
2022-11-25T10:19:00.583Z,2.90
2022-11-25T10:21:47.130Z,2.67
2022-11-25T10:24:38.445Z,2.97
2022-11-25T10:27:29.844Z,2.30
2022-11-25T10:30:20.727Z,2.20
2022-11-25T10:33:14.283Z,2.20
2022-11-25T10:36:02.022Z,2.00
2022-11-25T10:38:51.509Z,2.07
2022-11-25T10:41:39.675Z,3.03
2022-11-25T10:44:27.208Z,2.47
2022-11-25T10:47:22.966Z,2.43
2022-11-25T10:50:13.965Z,1.43
2022-11-25T10:53:02.041Z,2.37
2022-11-25T10:56:06.487Z,2.40
2022-11-25T10:58:52.598Z,1.70
2022-11-25T11:01:39.183Z,1.63
2022-11-25T11:04:27.300Z,2.13
2022-11-25T11:07:15.169Z,2.63
2022-11-25T11:10:19.012Z,2.30
2022-11-25T11:13:06.141Z,3.67
2022-11-25T11:15:53.425Z,2.60
2022-11-25T11:18:42.342Z,2.50
2022-11-25T11:21:32.898Z,2.13
2022-11-25T11:24:26.176Z,1.97
2022-11-25T11:27:17.943Z,2.37
2022-11-25T11:30:11.744Z,2.43
2022-11-25T11:33:07.613Z,2.60
2022-11-25T11:35:57.527Z,3.50
2022-11-25T11:38:52.496Z,2.50
2022-11-25T11:41:41.146Z,3.07
2022-11-25T11:44:32.227Z,2.27
2022-11-25T11:47:23.936Z,2.37
2022-11-25T11:50:20.370Z,2.70
2022-11-25T11:53:11.507Z,2.00
2022-11-25T11:56:33.022Z,2.37
2022-11-25T11:59:16.154Z,2.33
2022-11-25T12:02:18.750Z,2.33
2022-11-25T12:05:14.614Z,1.60
2022-11-25T12:08:05.252Z,2.67
2022-11-25T12:10:57.530Z,1.70
2022-11-25T12:13:48.173Z,2.43
2022-11-25T12:16:36.503Z,2.27
2022-11-25T12:19:25.233Z,2.33
2022-11-25T12:22:15.887Z,2.20
2022-11-25T12:25:07.389Z,2.40
2022-11-25T12:27:58.332Z,3.07
2022-11-25T12:30:52.117Z,2.30
2022-11-25T12:33:43.887Z,2.47
2022-11-25T12:36:32.242Z,2.10
2022-11-25T12:42:15.227Z,3.07
2022-11-25T12:45:04.787Z,2.33
2022-11-25T12:47:52.701Z,2.50
2022-11-25T12:50:44.106Z,2.50
2022-11-25T12:53:35.794Z,2.90
2022-11-25T12:56:25.785Z,2.17
2022-11-25T12:59:21.574Z,2.83
2022-11-25T13:02:21.893Z,2.20
2022-11-25T13:05:39.571Z,2.60
2022-11-25T13:08:32.188Z,2.40
2022-11-25T13:20:51.795Z,2.87
2022-11-25T13:23:48.763Z,3.20
2022-11-25T13:26:48.332Z,3.37
2022-11-25T13:30:05.388Z,3.57
2022-11-25T13:32:52.110Z,4.37
2022-11-25T13:35:39.346Z,4.40
2022-11-25T13:38:58.918Z,5.03
2022-11-25T13:44:51.691Z,5.93
2022-11-25T13:59:36.777Z,2.73
2022-11-25T14:02:29.496Z,6.77
2022-11-25T14:08:43.444Z,2.63
2022-11-25T14:11:39.721Z,2.70
2022-11-25T14:14:35.436Z,1.73
2022-11-25T14:17:31.226Z,3.27
2022-11-25T14:29:40.001Z,2.40
2022-11-25T14:41:07.545Z,2.03
2022-11-25T14:43:58.536Z,2.23
2022-11-25T14:46:54.297Z,3.07
2022-11-25T14:49:59.442Z,2.60
2022-11-25T14:52:54.136Z,2.37
2022-11-25T14:58:27.992Z,2.77
2022-11-25T15:01:20.977Z,5.20
2022-11-25T15:12:40.608Z,9.60
2022-11-25T15:24:02.158Z,4.57
2022-11-25T15:29:42.119Z,5.37
2022-11-25T15:32:29.534Z,4.07
2022-11-25T15:38:18.239Z,3.63
2022-11-25T15:41:04.975Z,4.27
2022-11-25T15:43:54.157Z,6.07
2022-11-25T16:06:53.202Z,5.90
2022-11-25T16:09:51.041Z,4.43
2022-11-25T16:12:37.363Z,4.60
2022-11-25T16:15:42.447Z,4.90
2022-11-25T16:21:30.666Z,4.40
2022-11-25T16:24:34.950Z,3.40
2022-11-25T16:27:24.528Z,4.97
2022-11-25T16:38:43.946Z,16.57
2022-11-25T16:41:30.884Z,14.80
2022-11-25T16:44:19.749Z,11.73
2022-11-25T16:47:05.931Z,11.67
2022-11-25T16:49:52.151Z,14.77
2022-11-25T16:52:38.322Z,16.67
2022-11-25T16:55:25.016Z,8.63
2022-11-25T16:58:16.841Z,10.33
2022-11-25T17:01:04.789Z,9.17
2022-11-25T17:03:51.161Z,7.50
2022-11-25T17:06:38.007Z,5.97
2022-11-25T17:09:24.740Z,7.03
2022-11-25T17:12:15.502Z,5.97
2022-11-25T17:15:02.481Z,5.20
2022-11-25T17:20:37.763Z,5.30
2022-11-25T17:23:25.943Z,6.40
2022-11-25T17:26:17.727Z,7.83
2022-11-25T17:29:05.638Z,13.60
2022-11-25T17:34:46.042Z,6.73
2022-11-25T17:40:19.627Z,6.93
2022-11-25T17:43:06.107Z,13.37
2022-11-25T17:45:52.541Z,7.60
2022-11-25T17:48:39.174Z,8.53
2022-11-25T17:51:26.770Z,8.47
2022-11-25T17:57:01.845Z,6.40
2022-11-25T17:59:48.369Z,7.93
2022-11-25T18:02:34.981Z,6.77
2022-11-25T18:05:22.845Z,8.90
2022-11-25T18:08:10.742Z,8.67
2022-11-25T18:10:57.339Z,10.60
2022-11-25T18:16:35.559Z,10.47
2022-11-25T18:19:22.322Z,10.10
2022-11-25T18:25:06.555Z,14.43
2022-11-25T18:27:56.488Z,7.23
2022-11-25T18:30:43.031Z,6.07
2022-11-25T18:36:20.202Z,6.13
2022-11-25T18:41:58.314Z,7.77
2022-11-25T18:44:44.912Z,8.30
2022-11-25T18:47:31.536Z,13.20
2022-11-25T18:50:19.082Z,10.13
2022-11-25T18:53:06.070Z,8.40
2022-11-25T18:58:41.313Z,9.47
2022-11-25T19:04:16.674Z,7.13
2022-11-25T19:07:03.120Z,7.20
2022-11-25T19:09:49.574Z,5.40
2022-11-25T19:15:26.395Z,5.17
2022-11-25T19:18:14.991Z,5.40
2022-11-25T19:23:48.677Z,6.37
2022-11-25T19:26:36.519Z,8.17
2022-11-25T19:32:20.287Z,9.00
2022-11-25T19:35:08.329Z,8.10
2022-11-25T19:40:41.486Z,6.80
2022-11-25T19:49:19.102Z,5.13
2022-11-25T19:52:05.674Z,4.73
2022-11-25T19:54:52.176Z,5.33
2022-11-25T20:03:17.557Z,19.40
2022-11-25T20:06:05.832Z,6.07
2022-11-25T20:08:52.039Z,5.20
2022-11-25T20:17:12.999Z,5.73
2022-11-25T20:20:00.705Z,5.00
2022-11-25T20:25:44.442Z,4.70
2022-11-25T20:28:31.269Z,4.33
2022-11-25T20:31:17.578Z,4.90
2022-11-25T20:34:03.836Z,5.77
2022-11-25T20:39:38.506Z,5.50
2022-11-25T20:42:25.843Z,6.03
2022-11-25T20:45:15.151Z,8.37
2022-11-25T20:50:48.956Z,6.47
2022-11-25T20:53:36.229Z,7.10
2022-11-25T20:56:24.479Z,5.43
2022-11-25T20:59:16.423Z,5.07
2022-11-25T21:04:50.249Z,3.37
2022-11-25T21:10:26.175Z,5.00
2022-11-25T21:13:17.477Z,4.00
2022-11-25T21:16:04.215Z,4.30
2022-11-25T21:18:50.861Z,3.30
2022-11-25T21:21:38.038Z,4.43
2022-11-25T21:24:28.976Z,5.70
2022-11-25T21:30:05.108Z,2.67
2022-11-25T21:32:52.983Z,3.63
2022-11-25T21:35:40.743Z,2.97
2022-11-25T21:38:28.028Z,3.33
2022-11-25T21:46:53.789Z,4.57
2022-11-25T21:49:39.892Z,5.43
2022-11-25T21:52:26.075Z,6.33
2022-11-25T21:57:59.876Z,5.73
2022-11-25T22:00:47.839Z,5.03
2022-11-25T22:14:46.885Z,4.43
2022-11-25T22:28:52.671Z,5.33
2022-11-25T22:31:39.298Z,4.50
2022-11-25T22:34:25.952Z,4.60
2022-11-25T22:37:18.094Z,5.37
2022-11-25T22:40:04.358Z,4.40
2022-11-25T22:54:12.465Z,3.03
2022-11-25T23:02:35.089Z,4.93
2022-11-25T23:11:22.359Z,3.57
2022-11-25T23:14:08.569Z,4.27
2022-11-25T23:16:55.256Z,4.20
2022-11-25T23:28:05.981Z,4.60
2022-11-25T23:36:36.659Z,3.60
2022-11-25T23:39:24.180Z,3.90
2022-11-25T23:42:16.098Z,3.57
